Pagrindinis puslapis
METAR-TAF:

METAR-TAF

Oro uostai :

Kirkenesas, Norvegija

platuma: 69-44N, ilguma: 029-54E, Aukštis: 9 m

Dabartinis oras

Ataskaita buvo paskelbta 39 minutes, ne 05:50 UTC
Vėjas 3 kt iš Šiaurės, svyruoja nuo Šiaurės Vakarų ir Šiaurės/Šiaurės Rytų
Temperatūra 9°C
Drėgmė 81%
Slėgis 1018 hPa
Matomumas 10 km arba daugiau
Mažai debesys ne aukštis 1100 ft
Išsisklaidę debesys ne aukštis 3000 ft
Su prošvaistėmis ne aukštis 5500 ft
lietus

METAR: ENKR 130550Z 35003KT 320V030 9999 -RA FEW011 SCT030 BKN055 09/06 Q1018 RMK WIND 731FT 33004KT

Laikas: 08:29 (06:29 UTC)

Prognozė

Ataskaita buvo paskelbta 1 valandą ir 29 minutes, ne 05:00 UTC
Prognozė galioja nuo 13 metu 06 UTC su 13 metu 15 UTC
Vėjas 5 kt iš Šiaurės/Šiaurės Rytų
Matomumas 10 km arba daugiau
Mažai debesys ne aukštis 1200 ft
Su prošvaistėmis ne aukštis 3000 ft
Tikimybė 40% :
Laikinai
nuo 13 metu 06 UTC su 13 metu 12 UTC
Su prošvaistėmis ne aukštis 1200 ft

TAF: ENKR 130500Z 1306/1315 02005KT 9999 FEW012 BKN030 PROB40 TEMPO 1306/1312 BKN012

Orai ataskaitas ir orų prognozės (METAR, TAF).

turimą stotys yra geltonos ir raudonos taškus žemėlapyje.

Perkelti pele per norėdami pamatyti stoties vardą.

Tada spustelėkite, norėdami matyti oro stebėjimo ir prognozės.

Norėdami pakeisti žemėlapį: spustelėkite ant žalios mygtukų su juodo kryžiaus žemyn,; žalią mygtuką su brūkšneliu, jei norite nutolinti; arba žalių rodyklių gretimoms žemėlapius.


METAR-TAF: